Latest Weather Observations for Longerenong

IDV60801

Issued at 1:31 pm EST Thursday 28 May 2015 (issued every 30 minutes, with the page automatically refreshed every 10 minutes)

About weather observations | Map of weather stations | Latest weather observations for VIC | Other Formats
Station Details ID: 079028 Name: LONGERENONG Lat: -36.67 Lon: 142.30 Height: 133.0 m
Data from the previous 72 hours. | See also: Recent months at Longerenong
Date/Time
EST
Temp
°C
App
Temp
°C
Dew
Point
Rel
Hum
%
Delta-T
°C
Wind Press
QNH
hPa
Press
MSL
hPa
Rain
since 9 am
mm
Dir
 
Spd
km/h
Gust
km/h
Spd
kts
Gust
kts
28/01:30pm 20.1 13.2 6.5 41 6.9 NW 32 43 17 23 - - 0.0
28/01:00pm 20.2 14.8 9.5 50 5.7 NW 28 39 15 21 - - 0.0
28/12:30pm 19.2 13.9 9.7 54 5.1 NW 28 37 15 20 - - 0.0
28/12:00pm 17.8 13.1 9.4 58 4.4 NW 24 32 13 17 - - 0.0
28/11:30am 17.7 13.0 9.1 57 4.5 NW 24 33 13 18 - - 0.0
28/11:00am 17.7 12.9 8.8 56 4.6 NW 24 33 13 18 - - 0.0
28/10:30am 17.1 11.8 8.5 57 4.4 NNW 26 33 14 18 - - 0.0
28/10:00am 15.5 10.9 8.0 61 3.8 NNW 22 28 12 15 - - 0.0
28/09:30am 13.3 9.1 7.5 68 2.9 NNW 19 26 10 14 - - 0.0
28/09:00am 10.1 7.6 6.6 79 1.7 NNW 9 13 5 7 - - 0.0
28/08:30am 7.2 5.0 5.2 87 0.9 N 6 9 3 5 - - 0.0
28/08:00am 5.6 3.6 4.2 91 0.6 NW 4 6 2 3 - - 0.0
28/07:30am 5.1 2.9 3.6 90 0.6 NNW 4 6 2 3 - - 0.0
28/07:00am 6.7 3.0 4.5 86 1.0 N 13 19 7 10 - - 0.0
28/06:30am 7.0 3.8 5.0 87 0.9 N 11 15 6 8 - - 0.0
28/06:00am 6.9 3.7 4.9 87 0.9 N 11 13 6 7 - - 0.0
28/05:30am 7.4 5.0 5.2 86 1.0 N 7 9 4 5 - - 0.0
28/05:00am 7.6 4.0 5.1 84 1.1 N 13 17 7 9 - - 0.0
28/04:30am 8.0 4.8 5.3 83 1.2 N 11 13 6 7 - - 0.0
28/04:00am 7.9 4.7 5.0 82 1.3 N 11 13 6 7 - - 0.0
28/03:30am 7.1 4.1 4.2 82 1.3 N 9 13 5 7 - - 0.0
28/03:00am 7.0 4.0 4.1 82 1.3 NNW 9 13 5 7 - - 0.0
28/02:30am 9.4 5.8 4.8 73 2.1 N 13 19 7 10 - - 0.0
28/02:00am 10.1 6.2 5.3 72 2.2 N 15 19 8 10 - - 0.0
28/01:30am 6.9 3.9 4.2 83 1.2 N 9 11 5 6 - - 0.0
28/01:00am 9.3 6.3 5.9 79 1.6 N 11 15 6 8 - - 0.0
28/12:30am 8.9 5.7 5.1 77 1.7 N 11 13 6 7 - - 0.0
28/12:00am 8.5 5.3 4.9 78 1.6 N 11 15 6 8 - - 0.0
 
Date/Time
EST
Temp
°C
App
Temp
°C
Dew
Point
Rel
Hum
%
Delta-T
°C
Wind Press
QNH
hPa
Press
MSL
hPa
Rain
since 9 am
mm
Dir
 
Spd
km/h
Gust
km/h
Spd
kts
Gust
kts
27/11:30pm 8.2 4.9 4.6 78 1.6 N 11 15 6 8 - - 0.0
27/11:00pm 7.7 4.8 4.5 80 1.4 N 9 11 5 6 - - 0.0
27/10:30pm 11.1 7.3 6.0 71 2.4 N 15 17 8 9 - - 0.0
27/10:00pm 11.1 8.2 6.5 73 2.2 N 11 13 6 7 - - 0.0
27/09:30pm 10.4 7.7 5.6 72 2.2 N 9 9 5 5 - - 0.0
27/09:00pm 10.7 8.4 5.5 70 2.4 NNW 7 9 4 5 - - 0.0
27/08:30pm 10.9 8.2 5.4 69 2.5 NNW 9 9 5 5 - - 0.0
27/08:00pm 11.5 8.8 5.6 67 2.8 NNW 9 11 5 6 - - 0.0
27/07:30pm 11.7 8.9 5.1 64 3.0 NNW 9 11 5 6 - - 0.0
27/07:00pm 11.4 8.9 4.8 64 3.0 NNW 7 9 4 5 - - 0.0
27/06:30pm 12.6 9.4 5.1 60 3.5 NW 11 13 6 7 - - 0.0
27/06:00pm 13.4 10.6 5.1 57 3.9 NW 9 11 5 6 - - 0.0
27/05:30pm 16.8 13.9 6.3 50 5.2 WNW 11 15 6 8 - - 0.0
27/05:00pm 18.7 14.7 6.5 45 6.1 WNW 17 22 9 12 - - 0.0
27/04:30pm 19.7 14.8 7.1 44 6.4 WNW 22 30 12 16 - - 0.0
27/04:00pm 20.2 15.5 7.6 44 6.5 NW 22 28 12 15 - - 0.0
27/03:30pm 20.5 15.7 7.5 43 6.7 NW 22 32 12 17 - - 0.0
27/03:00pm 20.9 15.9 7.9 43 6.8 NW 24 46 13 25 - - 0.0
27/02:30pm 20.1 15.1 8.1 46 6.3 WNW 24 32 13 17 - - 0.0
27/02:00pm 20.5 16.4 8.8 47 6.2 WNW 20 28 11 15 - - 0.0
27/01:30pm 20.7 16.4 9.3 48 6.1 NW 22 32 12 17 - - 0.0
27/01:00pm 20.0 16.1 9.3 50 5.7 NW 20 33 11 18 - - 0.0
27/12:30pm 20.3 16.0 9.5 50 5.8 NW 22 35 12 19 - - 0.0
27/12:00pm 19.1 15.3 9.0 52 5.3 NW 19 28 10 15 - - 0.0
27/11:30am 18.3 15.7 9.4 56 4.7 NW 13 20 7 11 - - 0.0
27/11:00am 17.1 15.0 9.8 62 3.9 NNW 11 15 6 8 - - 0.0
27/10:30am 15.8 14.1 9.7 67 3.2 NNW 9 15 5 8 - - 0.0
27/10:00am 14.4 12.6 9.6 73 2.5 N 9 13 5 7 - - 0.0
27/09:30am 13.6 12.4 9.5 76 2.1 NNE 6 9 3 5 - - 0.0
27/09:00am 12.2 10.6 8.7 79 1.8 NE 7 11 4 6 - - -
27/08:00am 10.6 - - - - ENE 4 7 2 4 - - 0.0
27/07:30am 10.9 - - - - NNE 6 7 3 4 - - 0.0
27/07:00am 10.9 - - - - ENE 4 9 2 5 - - 0.0
27/06:30am 11.0 - - - - NE 4 7 2 4 - - 0.0
27/06:00am 11.1 - - - - NNE 4 9 2 5 - - 0.0
27/05:30am 11.1 - - - - ENE 4 6 2 3 - - 0.0
27/05:00am 10.9 - - - - NE 7 11 4 6 - - 0.0
27/04:30am 10.7 - - - - NE 4 7 2 4 - - 0.0
27/04:00am 11.1 - - - - NE 6 11 3 6 - - 0.0
27/03:30am 11.0 - - - - NE 7 11 4 6 - - 0.0
27/03:00am 11.0 - - - - NE 9 13 5 7 - - 0.0
27/02:30am 11.3 - - - - NNE 11 17 6 9 - - 0.0
27/02:00am 11.9 - - - - NE 13 22 7 12 - - 0.0
27/01:30am 12.2 - - - - NE 13 20 7 11 - - 0.0
27/01:00am 12.6 - - - - NNE 15 26 8 14 - - 0.0
27/12:30am 12.7 - - - - NE 13 22 7 12 - - 0.0
27/12:00am 12.1 - - - - NE 13 19 7 10 - - 0.0
 
Date/Time
EST
Temp
°C
App
Temp
°C
Dew
Point
Rel
Hum
%
Delta-T
°C
Wind Press
QNH
hPa
Press
MSL
hPa
Rain
since 9 am
mm
Dir
 
Spd
km/h
Gust
km/h
Spd
kts
Gust
kts
26/11:30pm 12.1 - - - - NE 11 20 6 11 - - 0.0
26/11:00pm 12.1 - - - - NE 11 20 6 11 - - 0.0
26/10:30pm 12.1 - - - - NE 13 20 7 11 - - 0.0
26/10:00pm 12.2 - - - - NE 11 19 6 10 - - 0.0
26/09:30pm 12.2 - - - - NE 11 20 6 11 - - 0.0
26/09:00pm 12.1 - - - - NE 11 19 6 10 - - 0.0
26/08:30pm 12.0 - - - - NE 11 17 6 9 - - 0.0
26/08:00pm 12.3 - - - - NE 11 17 6 9 - - 0.0
26/07:30pm 12.6 - - - - NE 9 13 5 7 - - 0.0
26/07:00pm 13.6 - - - - NE 11 17 6 9 - - 0.0
26/06:30pm 14.3 - - - - NNE 11 17 6 9 - - 0.0
26/06:00pm 15.0 - - - - NNE 15 20 8 11 - - 0.0
26/05:30pm 16.0 - - - - NNE 15 20 8 11 - - 0.0
26/05:00pm 17.5 - - - - N 13 20 7 11 - - 0.0
26/04:30pm 18.2 - - - - NNE 11 17 6 9 - - 0.0
26/04:00pm 18.1 - - - - N 13 19 7 10 - - 0.0
26/03:30pm 18.3 - - - - N 15 24 8 13 - - 0.0
26/03:00pm 18.8 - - - - N 11 19 6 10 - - 0.0
26/02:30pm 18.2 - - - - N 13 22 7 12 - - 0.0
26/02:00pm 18.1 - - - - N 11 19 6 10 - - 0.0
26/01:30pm 16.6 - - - - NNE 9 17 5 9 - - 0.0
26/01:00pm 16.6 - - - - NE 7 15 4 8 - - 0.0
26/12:30pm 14.9 - - - - ENE 9 15 5 8 - - 0.0
26/12:00pm 14.2 - - - - ENE 11 17 6 9 - - 0.0
26/11:30am 12.7 - - - - ENE 11 17 6 9 - - 0.0
26/11:00am 11.6 - - - - ENE 9 15 5 8 - - 0.0
26/10:30am 10.7 - - - - ENE 11 19 6 10 - - 0.0
26/10:00am 10.2 - - - - E 11 19 6 10 - - 0.0
26/09:30am 9.6 - - - - ENE 11 17 6 9 - - 0.0
26/09:00am 9.0 - - - - E 7 11 4 6 - - 0.0
26/08:30am 8.1 - - - - ESE 9 13 5 7 - - 0.0
26/08:00am 7.4 - - - - ESE 11 13 6 7 - - 0.0
26/07:30am 7.5 - - - - E 9 13 5 7 - - 0.0
26/07:00am 6.9 - - - - E 9 11 5 6 - - 0.0
26/06:30am 6.2 - - - - E 9 11 5 6 - - 0.0
26/06:00am 6.2 - - - - E 9 11 5 6 - - 0.0
26/05:30am 5.4 - - - - ESE 9 11 5 6 - - 0.0
26/05:00am 5.3 - - - - E 9 9 5 5 - - 0.0
26/04:30am 4.8 - - - - ESE 7 9 4 5 - - 0.0
26/04:00am 4.5 - - - - ESE 11 11 6 6 - - 0.0
26/03:30am 4.1 - - - - ESE 7 7 4 4 - - 0.0
26/03:00am 4.3 - - - - ESE 7 9 4 5 - - 0.0
26/02:30am 4.4 - - - - ESE 9 9 5 5 - - 0.0
26/02:00am 4.1 - - - - ESE 7 9 4 5 - - 0.0
26/01:30am 4.4 - - - - E 6 7 3 4 - - 0.0
26/01:00am 2.9 - - - - ENE 6 6 3 3 - - 0.0
26/12:30am 5.9 - - - - ENE 7 9 4 5 - - 0.0
26/12:00am 6.3 - - - - ENE 7 9 4 5 - - 0.0
 
Date/Time
EST
Temp
°C
App
Temp
°C
Dew
Point
Rel
Hum
%
Delta-T
°C
Wind Press
QNH
hPa
Press
MSL
hPa
Rain
since 9 am
mm
Dir
 
Spd
km/h
Gust
km/h
Spd
kts
Gust
kts
25/11:30pm 6.6 - - - - ENE 7 9 4 5 - - 0.0
25/11:00pm 6.7 - - - - E 7 9 4 5 - - 0.0
25/10:30pm 7.5 - - - - E 7 9 4 5 - - 0.0
25/10:00pm 7.9 - - - - ENE 7 9 4 5 - - 0.0
25/09:30pm 7.1 - - - - ENE 7 9 4 5 - - 0.0
25/09:00pm 6.8 - - - - ENE 7 9 4 5 - - 0.0
25/08:30pm 10.1 - - - - NE 7 9 4 5 - - 0.0
25/08:00pm 8.7 - - - - NE 6 7 3 4 - - 0.0
25/07:30pm 10.7 - - - - NE 6 7 3 4 - - 0.0
25/07:00pm 11.8 - - - - NE 6 9 3 5 - - 0.0
25/06:30pm 12.2 - - - - NE 6 7 3 4 - - 0.0
25/06:00pm 13.3 - - - - NE 6 7 3 4 - - 0.0
25/05:30pm 14.2 - - - - NE 4 6 2 3 - - 0.0
25/05:00pm 15.7 - - - - NE 6 9 3 5 - - 0.0
25/04:30pm 16.7 - - - - NNE 4 9 2 5 - - 0.0
25/04:00pm 17.1 - - - - N 4 7 2 4 - - 0.0
25/03:30pm 17.1 - - - - N 2 9 1 5 - - 0.0
25/03:00pm 16.9 - - - - NNE 6 11 3 6 - - 0.0
25/02:30pm 17.0 - - - - N 7 13 4 7 - - 0.0
25/02:00pm 17.0 - - - - N 6 11 3 6 - - 0.0

Other Formats:

Comma delimited format used in spreadsheet applications
http://www.bom.gov.au/fwo/IDV60801/IDV60801.95835.axf

JavaScript Object Notation format (JSON) in row-major order
http://www.bom.gov.au/fwo/IDV60801/IDV60801.95835.json